Time;durP1;ratioP1;P1;durP2;ratioP2;P2;SDS_P1;SDS_P2;PMS_P1;PMS_P2;Temp;Humidity;BMP_temperature;BMP_pressure;BME280_temperature;BME280_humidity;BME280_pressure;Samples;Min_cycle;Max_cycle;Signal;HPM_P1;HPM_P2
2023/01/01 00:00:34;;;;;;;419.53;265.17;;;12.60;99.90;;;;;;5028025;28;20457;-72
2023/01/01 00:03:00;;;;;;;399.10;266.97;;;12.60;99.90;;;;;;5027839;28;20461;-73
2023/01/01 00:05:27;;;;;;;312.87;201.60;;;12.60;99.90;;;;;;5028036;28;20461;-72
2023/01/01 00:07:55;;;;;;;354.27;219.10;;;12.50;99.90;;;;;;5027125;28;20862;-72
2023/01/01 00:10:27;;;;;;;349.37;222.30;;;12.40;99.90;;;;;;5027769;28;20953;-72
2023/01/01 00:12:54;;;;;;;286.50;187.77;;;12.40;99.90;;;;;;5027650;28;20458;-72
2023/01/01 00:15:21;;;;;;;278.57;173.80;;;12.40;99.90;;;;;;5028120;28;20481;-72
2023/01/01 00:17:48;;;;;;;167.47;109.77;;;12.40;99.90;;;;;;5025966;28;20481;-72
2023/01/01 00:20:14;;;;;;;186.60;122.60;;;12.30;99.90;;;;;;5027662;28;20921;-72
2023/01/01 00:22:42;;;;;;;128.70;81.73;;;12.30;99.90;;;;;;5027858;28;20458;-72
2023/01/01 00:25:13;;;;;;;167.60;107.27;;;12.30;99.90;;;;;;5027265;28;20456;-72
2023/01/01 00:27:40;;;;;;;149.13;95.60;;;12.30;99.90;;;;;;5026633;28;20548;-72
2023/01/01 00:30:08;;;;;;;137.40;90.80;;;12.30;99.90;;;;;;5027432;28;20460;-72
2023/01/01 00:32:34;;;;;;;118.33;76.87;;;12.30;99.90;;;;;;5027459;28;20465;-72
2023/01/01 00:35:01;;;;;;;145.87;92.20;;;12.30;99.90;;;;;;5027095;28;20458;-72
2023/01/01 00:37:28;;;;;;;134.80;91.07;;;12.30;99.90;;;;;;5026425;28;20503;-72
2023/01/01 00:39:55;;;;;;;157.40;101.47;;;12.30;99.90;;;;;;5027117;28;20545;-72
2023/01/01 00:42:23;;;;;;;192.73;119.87;;;12.30;99.90;;;;;;5027192;28;20457;-72
2023/01/01 00:44:50;;;;;;;406.00;255.47;;;12.30;99.90;;;;;;5027354;28;20464;-72
2023/01/01 00:47:17;;;;;;;401.60;248.20;;;12.20;99.90;;;;;;5026380;28;20847;-72
2023/01/01 00:49:44;;;;;;;331.27;201.80;;;12.10;99.90;;;;;;5026859;28;20461;-72
2023/01/01 00:52:11;;;;;;;184.03;109.23;;;12.00;99.90;;;;;;5025527;28;20464;-72
2023/01/01 00:54:38;;;;;;;266.20;152.10;;;12.00;99.90;;;;;;5026958;28;20464;-72
2023/01/01 00:57:05;;;;;;;184.57;109.20;;;12.00;99.90;;;;;;5026254;28;20477;-72
2023/01/01 00:59:33;;;;;;;141.83;85.20;;;12.00;99.90;;;;;;5026882;28;20751;-72
2023/01/01 01:02:00;;;;;;;73.97;49.67;;;12.00;99.90;;;;;;5026495;28;20839;-72
2023/01/01 01:04:27;;;;;;;102.03;64.53;;;12.00;99.90;;;;;;5025398;28;20947;-72
2023/01/01 01:06:53;;;;;;;56.20;37.27;;;12.00;99.90;;;;;;5026216;28;20453;-72
2023/01/01 01:09:20;;;;;;;82.50;44.47;;;12.00;99.90;;;;;;5027098;28;20452;-72
2023/01/01 01:11:47;;;;;;;43.50;28.83;;;12.00;99.90;;;;;;5027113;28;20494;-72
2023/01/01 01:14:14;;;;;;;50.37;32.50;;;12.00;99.90;;;;;;5027026;28;20511;-72
2023/01/01 01:16:42;;;;;;;53.53;34.00;;;12.10;99.90;;;;;;5025660;28;21091;-72
2023/01/01 01:19:14;;;;;;;49.83;31.97;;;12.10;99.90;;;;;;5026697;28;20774;-72
2023/01/01 01:21:41;;;;;;;51.37;31.70;;;12.20;99.90;;;;;;5026515;28;20470;-72
2023/01/01 01:24:10;;;;;;;47.37;31.23;;;12.20;99.90;;;;;;5026440;28;20855;-72
2023/01/01 01:26:36;;;;;;;48.77;31.20;;;12.20;99.90;;;;;;5025735;28;20463;-72
2023/01/01 01:29:04;;;;;;;49.17;32.33;;;12.20;99.90;;;;;;5025778;28;20996;-73
2023/01/01 01:31:33;;;;;;;53.20;32.97;;;12.30;99.90;;;;;;5025962;28;20984;-73
2023/01/01 01:34:01;;;;;;;51.20;31.70;;;12.20;99.90;;;;;;5026241;28;20454;-73
2023/01/01 01:36:28;;;;;;;43.57;28.10;;;12.20;99.90;;;;;;5025667;28;20461;-73
2023/01/01 01:38:56;;;;;;;40.43;27.73;;;12.20;99.90;;;;;;5026260;28;20473;-73
2023/01/01 01:41:25;;;;;;;38.47;26.37;;;12.20;99.90;;;;;;5025929;28;20444;-73
2023/01/01 01:43:54;;;;;;;42.73;28.90;;;12.20;99.90;;;;;;5025567;28;20457;-73
2023/01/01 01:46:26;;;;;;;37.47;27.43;;;12.30;99.90;;;;;;5025272;28;20445;-73
2023/01/01 01:48:54;;;;;;;48.90;31.90;;;12.30;99.90;;;;;;5026053;28;20496;-73
2023/01/01 01:51:27;;;;;;;44.67;30.40;;;12.30;99.90;;;;;;5025991;28;20457;-73
2023/01/01 01:53:59;;;;;;;32.07;22.40;;;12.30;99.90;;;;;;5025767;28;20450;-73
2023/01/01 01:56:31;;;;;;;33.80;22.80;;;12.30;99.90;;;;;;5024955;28;20468;-73
2023/01/01 01:58:58;;;;;;;32.00;21.30;;;12.30;99.90;;;;;;5025787;28;20462;-73
2023/01/01 02:01:26;;;;;;;32.53;21.53;;;12.30;99.90;;;;;;5025739;28;20460;-73
2023/01/01 02:03:57;;;;;;;31.83;22.00;;;12.40;99.90;;;;;;5025258;28;20449;-73
2023/01/01 02:06:26;;;;;;;39.73;24.90;;;12.40;99.90;;;;;;5025232;28;20445;-73
2023/01/01 02:08:55;;;;;;;35.40;23.40;;;12.40;99.90;;;;;;5025436;28;20520;-73
2023/01/01 02:11:22;;;;;;;35.67;24.23;;;12.40;99.90;;;;;;5025713;28;20453;-73
2023/01/01 02:13:49;;;;;;;34.60;25.13;;;12.40;99.90;;;;;;5025530;28;20458;-73
2023/01/01 02:16:21;;;;;;;30.17;21.03;;;12.40;99.90;;;;;;5024869;28;20465;-73
2023/01/01 02:18:55;;;;;;;31.60;22.67;;;12.40;99.90;;;;;;5025459;28;20515;-73
2023/01/01 02:21:30;;;;;;;28.37;18.80;;;12.40;99.90;;;;;;5025238;28;20877;-73
2023/01/01 02:24:23;;;;;;;26.03;17.37;;;12.40;99.90;;;;;;5025410;28;20453;-73
2023/01/01 02:26:56;;;;;;;31.63;20.63;;;12.40;99.90;;;;;;5024887;28;20481;-73
2023/01/01 02:29:31;;;;;;;31.33;20.47;;;12.40;99.90;;;;;;5025020;28;20477;-73
2023/01/01 02:32:03;;;;;;;29.30;19.77;;;12.40;99.90;;;;;;5025011;28;20622;-73
2023/01/01 02:34:39;;;;;;;28.23;20.87;;;12.30;99.90;;;;;;5023887;28;20442;-73
2023/01/01 02:37:13;;;;;;;31.20;20.33;;;12.30;99.90;;;;;;5024937;28;20847;-73
2023/01/01 02:39:50;;;;;;;33.33;21.60;;;12.30;99.90;;;;;;5025792;28;20430;-73
2023/01/01 02:42:20;;;;;;;29.70;20.70;;;12.30;99.90;;;;;;5023972;28;20456;-73
2023/01/01 02:44:52;;;;;;;21.97;16.43;;;12.30;99.90;;;;;;5025168;28;20414;-73
2023/01/01 02:47:20;;;;;;;26.13;15.70;;;12.30;99.90;;;;;;5024518;28;20508;-73
2023/01/01 02:49:55;;;;;;;21.57;14.23;;;12.40;99.90;;;;;;5025002;28;20498;-73
2023/01/01 02:52:42;;;;;;;20.53;15.00;;;12.50;99.90;;;;;;5024985;28;20437;-73
2023/01/01 02:55:20;;;;;;;16.67;12.53;;;12.50;99.90;;;;;;5024998;28;20969;-73
2023/01/01 02:57:53;;;;;;;15.40;11.80;;;12.60;99.90;;;;;;5024549;28;21220;-73
2023/01/01 03:00:27;;;;;;;15.47;10.70;;;12.70;99.90;;;;;;5025317;28;20771;-73
2023/01/01 03:03:14;;;;;;;12.37;9.67;;;12.80;99.90;;;;;;5024703;28;20454;-73
2023/01/01 03:08:42;;;;;;;13.77;8.10;;;13.00;99.90;;;;;;5024863;28;20857;-73
2023/01/01 03:11:14;;;;;;;11.60;7.37;;;13.10;99.90;;;;;;5024860;28;20869;-73
2023/01/01 03:13:47;;;;;;;13.50;8.87;;;13.20;99.90;;;;;;5025140;28;20449;-73
2023/01/01 03:16:22;;;;;;;13.73;10.90;;;13.20;99.90;;;;;;5024501;28;20438;-73
2023/01/01 03:19:10;;;;;;;16.40;11.20;;;13.10;99.90;;;;;;5024826;28;20841;-73
2023/01/01 03:21:41;;;;;;;15.00;10.80;;;13.10;99.90;;;;;;5024677;28;20457;-73
2023/01/01 03:24:11;;;;;;;14.20;9.40;;;13.00;99.90;;;;;;5025553;28;20449;-73
2023/01/01 03:26:40;;;;;;;12.30;8.40;;;13.10;99.90;;;;;;5026432;28;20449;-73
2023/01/01 03:29:11;;;;;;;12.50;7.53;;;13.10;99.90;;;;;;5028818;28;20493;-73
2023/01/01 03:31:43;;;;;;;12.10;7.80;;;13.10;99.90;;;;;;5028952;28;20492;-73
2023/01/01 03:34:16;;;;;;;8.80;6.63;;;13.20;99.90;;;;;;5028392;28;20565;-73
2023/01/01 03:36:46;;;;;;;13.30;7.60;;;13.20;99.90;;;;;;5028195;28;20457;-73
2023/01/01 03:39:18;;;;;;;10.87;7.47;;;13.30;99.90;;;;;;5028289;28;20961;-74
2023/01/01 03:41:52;;;;;;;11.07;6.83;;;13.40;99.90;;;;;;5028805;28;20462;-73
2023/01/01 03:44:24;;;;;;;11.20;7.00;;;13.40;99.90;;;;;;5028356;28;20445;-73
2023/01/01 03:46:53;;;;;;;13.93;7.50;;;13.40;99.90;;;;;;5027948;28;20449;-73
2023/01/01 03:49:21;;;;;;;10.27;7.17;;;13.50;99.90;;;;;;5028191;28;20493;-73
2023/01/01 03:52:14;;;;;;;10.67;8.73;;;13.50;99.90;;;;;;5028078;28;20964;-73
2023/01/01 03:54:48;;;;;;;10.73;7.00;;;13.50;99.90;;;;;;5028431;28;20438;-73
2023/01/01 03:57:22;;;;;;;10.53;6.43;;;13.50;99.90;;;;;;5027733;28;20477;-73
2023/01/01 03:59:58;;;;;;;6.53;5.80;;;13.50;99.90;;;;;;5028178;28;20446;-73
2023/01/01 04:02:34;;;;;;;10.87;7.07;;;13.60;99.90;;;;;;5028029;28;20441;-73
2023/01/01 04:05:03;;;;;;;8.57;6.47;;;13.60;99.90;;;;;;5027184;28;20442;-73
2023/01/01 04:07:31;;;;;;;8.60;6.23;;;13.70;99.90;;;;;;5027103;28;20561;-73
2023/01/01 04:10:01;;;;;;;8.13;6.07;;;13.70;99.90;;;;;;5028056;28;20501;-73
2023/01/01 04:12:29;;;;;;;8.83;6.23;;;13.80;99.90;;;;;;5028102;28;20453;-73
2023/01/01 04:14:56;;;;;;;7.00;5.13;;;13.80;99.90;;;;;;5028002;28;20449;-73
2023/01/01 04:17:23;;;;;;;8.53;5.70;;;13.80;99.90;;;;;;5027102;28;20485;-73
2023/01/01 04:19:51;;;;;;;7.33;5.60;;;13.90;99.90;;;;;;5027864;28;20590;-73
2023/01/01 04:22:22;;;;;;;9.23;5.67;;;13.90;99.90;;;;;;5027588;28;20454;-73
2023/01/01 04:24:48;;;;;;;11.33;5.60;;;13.90;99.90;;;;;;5027576;28;20442;-73
2023/01/01 04:27:15;;;;;;;6.93;4.70;;;13.90;99.90;;;;;;5027018;28;20470;-73
2023/01/01 04:29:42;;;;;;;8.60;4.47;;;13.90;99.90;;;;;;5027307;28;20495;-73
2023/01/01 04:32:09;;;;;;;10.87;6.37;;;13.90;99.90;;;;;;5027224;28;20835;-73
2023/01/01 04:34:35;;;;;;;8.10;4.63;;;14.00;99.90;;;;;;5027253;28;20453;-73
2023/01/01 04:37:03;;;;;;;6.17;4.53;;;14.00;99.90;;;;;;5026556;28;20449;-73
2023/01/01 04:39:30;;;;;;;5.17;4.03;;;14.00;99.90;;;;;;5027349;28;20943;-73
2023/01/01 04:41:57;;;;;;;6.97;4.50;;;14.00;99.90;;;;;;5027267;28;20464;-73
2023/01/01 04:44:24;;;;;;;8.67;4.93;;;14.00;99.90;;;;;;5027579;28;20458;-73
2023/01/01 04:46:50;;;;;;;7.57;4.67;;;14.00;99.90;;;;;;5026695;28;21158;-73
2023/01/01 04:49:18;;;;;;;10.63;4.70;;;13.90;99.90;;;;;;5027262;28;20493;-73
2023/01/01 04:51:45;;;;;;;5.20;4.30;;;13.90;99.90;;;;;;5027574;28;20454;-73
2023/01/01 04:54:13;;;;;;;6.73;4.33;;;13.90;99.90;;;;;;5027700;28;20476;-73
2023/01/01 04:56:40;;;;;;;6.30;4.10;;;13.90;99.90;;;;;;5026824;28;20476;-73
2023/01/01 04:59:07;;;;;;;6.03;3.90;;;13.90;99.90;;;;;;5027126;28;20981;-73
2023/01/01 05:01:33;;;;;;;8.50;4.20;;;13.80;99.90;;;;;;5027184;28;20480;-73
2023/01/01 05:04:01;;;;;;;6.77;4.27;;;13.80;99.90;;;;;;5026797;28;20450;-73
2023/01/01 05:06:28;;;;;;;7.20;4.13;;;13.80;99.90;;;;;;5026775;28;20442;-74
2023/01/01 05:08:56;;;;;;;7.30;4.40;;;13.80;99.90;;;;;;5027044;28;20569;-73
2023/01/01 05:11:27;;;;;;;5.83;3.80;;;13.70;99.90;;;;;;5027292;28;20454;-73
2023/01/01 05:13:55;;;;;;;8.93;4.30;;;13.70;99.90;;;;;;5027148;28;20469;-73
2023/01/01 05:16:24;;;;;;;10.93;5.30;;;13.70;99.90;;;;;;5026335;28;20457;-73
2023/01/01 05:18:51;;;;;;;6.17;4.20;;;13.70;99.90;;;;;;5026938;28;20508;-73
2023/01/01 05:21:20;;;;;;;6.67;4.23;;;13.70;99.90;;;;;;5026876;28;20453;-73
2023/01/01 05:23:47;;;;;;;6.27;3.80;;;13.60;99.90;;;;;;5026877;28;20445;-73
2023/01/01 05:26:15;;;;;;;6.77;4.40;;;13.60;99.90;;;;;;5026067;28;20937;-73
2023/01/01 05:28:44;;;;;;;5.60;4.30;;;13.60;99.90;;;;;;5026621;28;20510;-73
2023/01/01 05:31:14;;;;;;;10.47;5.47;;;13.60;99.90;;;;;;5026761;28;20453;-74
2023/01/01 05:33:42;;;;;;;7.70;5.30;;;13.60;99.90;;;;;;5026719;28;20461;-74
2023/01/01 05:36:14;;;;;;;7.73;5.20;;;13.60;99.90;;;;;;5026195;28;20445;-73
2023/01/01 05:38:41;;;;;;;8.30;5.00;;;13.50;99.90;;;;;;5026465;28;20465;-73
2023/01/01 05:41:08;;;;;;;7.50;5.60;;;13.50;99.90;;;;;;5026350;28;20456;-73
2023/01/01 05:43:36;;;;;;;9.83;5.93;;;13.40;99.90;;;;;;5026674;28;20458;-73
2023/01/01 05:46:05;;;;;;;8.67;6.00;;;13.40;99.90;;;;;;5026009;28;21130;-73
2023/01/01 05:48:34;;;;;;;9.63;6.40;;;13.40;99.90;;;;;;5025166;28;20477;-73
2023/01/01 05:51:03;;;;;;;11.30;7.07;;;13.40;99.90;;;;;;5026487;28;20450;-73
2023/01/01 05:53:30;;;;;;;8.90;6.70;;;13.40;99.90;;;;;;5026449;28;20468;-73
2023/01/01 05:55:57;;;;;;;8.90;6.27;;;13.40;99.90;;;;;;5025883;28;20449;-73
2023/01/01 05:58:24;;;;;;;9.57;6.50;;;13.30;99.90;;;;;;5026390;28;20477;-73
2023/01/01 06:00:51;;;;;;;11.60;6.90;;;13.30;99.90;;;;;;5026496;28;20468;-73
2023/01/01 06:03:20;;;;;;;9.80;6.03;;;13.30;99.90;;;;;;5025495;28;20453;-73
2023/01/01 06:05:47;;;;;;;9.47;6.00;;;13.20;99.90;;;;;;5026251;28;20442;-73
2023/01/01 06:08:14;;;;;;;6.50;5.60;;;13.20;99.90;;;;;;5025441;28;20480;-73
2023/01/01 06:10:41;;;;;;;6.50;5.20;;;13.20;99.90;;;;;;5025999;28;20496;-73
2023/01/01 06:13:08;;;;;;;7.83;4.53;;;13.10;99.90;;;;;;5025980;28;20458;-73
2023/01/01 06:15:35;;;;;;;9.50;5.33;;;13.10;99.90;;;;;;5026174;28;20469;-73
2023/01/01 06:18:01;;;;;;;8.70;4.27;;;13.10;99.90;;;;;;5025131;28;20477;-73
2023/01/01 06:20:29;;;;;;;6.80;4.33;;;13.00;99.90;;;;;;5026130;28;20468;-73
2023/01/01 06:22:56;;;;;;;5.80;3.70;;;13.10;99.90;;;;;;5025121;28;20459;-73
2023/01/01 06:25:23;;;;;;;4.90;3.23;;;13.10;99.90;;;;;;5025730;28;20946;-73
2023/01/01 06:27:50;;;;;;;5.80;3.80;;;13.10;99.90;;;;;;5025130;28;20482;-73
2023/01/01 06:30:16;;;;;;;6.43;4.03;;;13.10;99.90;;;;;;5025690;28;20485;-73
2023/01/01 06:32:43;;;;;;;6.10;3.60;;;13.10;99.90;;;;;;5025872;28;20462;-73
2023/01/01 06:35:10;;;;;;;5.50;2.97;;;13.10;99.90;;;;;;5025881;28;20457;-73
2023/01/01 06:37:38;;;;;;;5.93;3.80;;;13.20;99.90;;;;;;5024438;28;21067;-73
2023/01/01 06:40:06;;;;;;;5.80;3.10;;;13.20;99.90;;;;;;5025630;28;20445;-73
2023/01/01 06:42:33;;;;;;;5.23;3.30;;;13.20;99.90;;;;;;5025702;28;20481;-73
2023/01/01 06:45:00;;;;;;;6.80;3.60;;;13.20;99.90;;;;;;5025785;28;20454;-73
2023/01/01 06:47:27;;;;;;;5.80;3.30;;;13.20;99.90;;;;;;5024583;28;20469;-73
2023/01/01 06:49:53;;;;;;;4.70;3.50;;;13.30;99.90;;;;;;5024991;28;20490;-73
2023/01/01 06:52:20;;;;;;;5.37;3.20;;;13.30;99.90;;;;;;5025693;28;20457;-73
2023/01/01 06:54:48;;;;;;;5.00;3.37;;;13.30;99.90;;;;;;5025506;28;20465;-73
2023/01/01 06:57:15;;;;;;;6.23;3.27;;;13.30;99.90;;;;;;5024763;28;20480;-73
2023/01/01 06:59:42;;;;;;;5.70;3.50;;;13.30;99.90;;;;;;5025819;28;20446;-73
2023/01/01 07:02:10;;;;;;;4.60;3.43;;;13.30;99.90;;;;;;5029899;28;20445;-74
2023/01/01 07:04:37;;;;;;;7.40;4.03;;;13.30;99.90;;;;;;5028560;28;20488;-73
2023/01/01 07:07:04;;;;;;;6.63;3.93;;;13.30;99.90;;;;;;5028634;28;20476;-73
2023/01/01 07:09:31;;;;;;;7.20;4.33;;;13.30;99.90;;;;;;5029431;28;20489;-73
2023/01/01 07:11:59;;;;;;;14.57;4.50;;;13.30;99.90;;;;;;5029373;28;20461;-73
2023/01/01 07:14:26;;;;;;;6.80;3.40;;;13.30;99.90;;;;;;5029292;28;20448;-72
2023/01/01 07:16:53;;;;;;;4.53;3.40;;;13.20;99.90;;;;;;5028207;28;20458;-71
2023/01/01 07:19:20;;;;;;;4.80;3.17;;;13.20;99.90;;;;;;5029277;28;20430;-72
2023/01/01 07:21:52;;;;;;;8.73;3.30;;;13.20;99.90;;;;;;5029649;28;20457;-71
2023/01/01 07:24:19;;;;;;;6.53;3.80;;;13.20;99.90;;;;;;5029258;28;20441;-72
2023/01/01 07:26:46;;;;;;;4.93;2.87;;;13.20;99.90;;;;;;5028502;28;20456;-72
2023/01/01 07:29:14;;;;;;;5.53;3.70;;;13.20;99.90;;;;;;5028960;28;20499;-72
2023/01/01 07:31:43;;;;;;;7.97;4.50;;;13.20;99.90;;;;;;5027791;28;20959;-71
2023/01/01 07:34:14;;;;;;;5.43;3.50;;;13.20;99.90;;;;;;5021735;28;20458;-72
2023/01/01 07:36:41;;;;;;;6.80;4.07;;;13.20;99.90;;;;;;5025243;28;20545;-72
2023/01/01 07:39:07;;;;;;;4.90;3.07;;;13.20;99.90;;;;;;5027448;28;20469;-72
2023/01/01 07:41:34;;;;;;;6.30;3.27;;;13.20;99.90;;;;;;5027299;28;20960;-71
2023/01/01 07:44:01;;;;;;;7.93;3.43;;;13.20;99.90;;;;;;5028780;28;20534;-72
2023/01/01 07:46:29;;;;;;;5.40;3.40;;;13.30;99.90;;;;;;5028076;28;20464;-72
2023/01/01 07:48:56;;;;;;;4.70;3.13;;;13.30;99.90;;;;;;5028487;28;20473;-72
2023/01/01 07:51:23;;;;;;;5.80;3.60;;;13.40;99.90;;;;;;5029122;28;20500;-72
2023/01/01 07:53:50;;;;;;;5.40;3.53;;;13.40;99.90;;;;;;5028824;28;20459;-72
2023/01/01 07:56:17;;;;;;;5.80;2.70;;;13.40;99.90;;;;;;5027631;28;20949;-72
2023/01/01 07:58:44;;;;;;;4.53;3.03;;;13.50;99.90;;;;;;5028507;28;20477;-72
2023/01/01 08:01:11;;;;;;;7.40;2.90;;;13.50;99.90;;;;;;5028598;28;20457;-72
2023/01/01 08:03:39;;;;;;;6.63;2.60;;;13.60;99.90;;;;;;5027127;28;20457;-72
2023/01/01 08:06:08;;;;;;;5.00;3.00;;;13.70;99.90;;;;;;5027821;28;20961;-71
2023/01/01 08:08:35;;;;;;;4.00;2.63;;;13.80;99.90;;;;;;5028625;28;20472;-72
2023/01/01 08:11:02;;;;;;;5.07;2.60;;;13.90;99.90;;;;;;5028221;28;20497;-72
2023/01/01 08:13:29;;;;;;;4.87;2.90;;;14.00;99.90;;;;;;5027675;28;20799;-72
2023/01/01 08:15:57;;;;;;;6.17;2.80;;;14.00;99.90;;;;;;5028160;28;20454;-72
2023/01/01 08:18:24;;;;;;;4.30;2.53;;;14.00;99.90;;;;;;5027855;28;20489;-72
2023/01/01 08:20:52;;;;;;;6.20;2.57;;;14.10;99.90;;;;;;5028207;28;20450;-71
2023/01/01 08:23:19;;;;;;;4.50;2.93;;;14.10;99.90;;;;;;5028307;28;20819;-72
2023/01/01 08:25:46;;;;;;;3.80;2.73;;;14.20;99.90;;;;;;5027942;28;20457;-71
2023/01/01 08:28:13;;;;;;;4.43;2.73;;;14.20;99.90;;;;;;5026978;28;20476;-72
2023/01/01 08:30:39;;;;;;;4.77;2.83;;;14.20;99.90;;;;;;5028217;28;20520;-72
2023/01/01 08:33:06;;;;;;;4.07;3.20;;;14.20;99.90;;;;;;5028160;28;20457;-72
2023/01/01 08:35:34;;;;;;;7.40;3.13;;;14.20;99.90;;;;;;5027712;28;20461;-71
2023/01/01 08:38:02;;;;;;;6.70;3.33;;;14.20;99.90;;;;;;5026903;28;21376;-71
2023/01/01 08:40:29;;;;;;;3.57;2.47;;;14.20;99.90;;;;;;5027770;28;20460;-71
2023/01/01 08:42:55;;;;;;;6.17;2.60;;;14.20;99.90;;;;;;5028094;28;20485;-71
2023/01/01 08:45:22;;;;;;;4.13;3.00;;;14.20;99.90;;;;;;5028019;28;20453;-71
2023/01/01 08:47:49;;;;;;;5.50;3.30;;;14.20;99.90;;;;;;5027441;28;20480;-71
2023/01/01 08:50:16;;;;;;;6.30;3.20;;;14.30;99.90;;;;;;5027580;28;20500;-72
2023/01/01 08:52:42;;;;;;;4.13;2.80;;;14.30;99.90;;;;;;5027401;28;20461;-65
2023/01/01 08:55:11;;;;;;;8.00;3.20;;;14.30;99.90;;;;;;5027451;28;20450;-71
2023/01/01 08:57:38;;;;;;;4.70;2.90;;;14.30;99.90;;;;;;5026688;28;20474;-71
2023/01/01 09:00:08;;;;;;;5.03;2.57;;;14.30;99.90;;;;;;5027600;28;20457;-71
2023/01/01 09:02:34;;;;;;;4.60;2.90;;;14.30;99.90;;;;;;5027312;28;20454;-71
2023/01/01 09:05:01;;;;;;;4.20;2.80;;;14.40;99.90;;;;;;5025624;28;20452;-71
2023/01/01 09:07:28;;;;;;;5.53;3.17;;;14.40;99.90;;;;;;5025939;28;20481;-71
2023/01/01 09:09:55;;;;;;;5.17;3.20;;;14.50;99.90;;;;;;5026994;28;20501;-71
2023/01/01 09:12:23;;;;;;;5.87;2.93;;;14.50;99.90;;;;;;5026556;28;20954;-71
2023/01/01 09:14:50;;;;;;;5.07;2.90;;;14.60;99.90;;;;;;5026931;28;20456;-71
2023/01/01 09:17:17;;;;;;;5.80;3.57;;;14.70;99.90;;;;;;5025729;28;21059;-71
2023/01/01 09:19:43;;;;;;;6.97;3.23;;;14.70;99.90;;;;;;5026937;28;20949;-71
2023/01/01 09:22:11;;;;;;;6.97;3.03;;;14.80;99.90;;;;;;5026985;28;20462;-72
2023/01/01 09:24:38;;;;;;;6.90;3.43;;;14.80;99.90;;;;;;5025477;28;20976;-71
2023/01/01 09:27:05;;;;;;;4.23;2.90;;;14.90;99.90;;;;;;5025909;28;20474;-71
2023/01/01 09:29:33;;;;;;;6.50;2.70;;;14.90;99.90;;;;;;5025969;28;20453;-71
2023/01/01 09:32:00;;;;;;;8.30;3.47;;;15.00;99.90;;;;;;5026170;28;20532;-72
2023/01/01 09:34:27;;;;;;;5.57;2.60;;;15.00;99.90;;;;;;5026422;28;20461;-72
2023/01/01 09:36:54;;;;;;;4.23;2.77;;;15.10;99.90;;;;;;5025532;28;20449;-71
2023/01/01 09:39:20;;;;;;;7.13;3.23;;;15.20;99.90;;;;;;5026498;28;20480;-72
2023/01/01 09:42:04;;;;;;;7.93;3.73;;;15.40;99.90;;;;;;5026380;28;20453;-71
2023/01/01 09:44:56;;;;;;;5.13;3.10;;;15.40;99.90;;;;;;5024433;28;20816;-71
2023/01/01 09:47:29;;;;;;;5.67;3.60;;;15.50;99.90;;;;;;5025608;28;20474;-72
2023/01/01 09:49:59;;;;;;;5.50;2.90;;;15.60;99.90;;;;;;5026054;28;20454;-72
2023/01/01 09:52:32;;;;;;;3.47;2.60;;;15.60;99.90;;;;;;5026494;28;20457;-72
2023/01/01 09:55:02;;;;;;;3.90;2.97;;;15.80;99.90;;;;;;5025536;28;20820;-72
2023/01/01 09:57:31;;;;;;;4.13;2.80;;;15.90;99.90;;;;;;5025392;28;20470;-72
2023/01/01 10:00:00;;;;;;;5.27;2.60;;;16.00;99.90;;;;;;5026068;28;20453;-72
2023/01/01 10:02:39;;;;;;;4.60;2.60;;;16.10;99.90;;;;;;5025598;28;20485;-80
2023/01/01 10:05:23;;;;;;;5.67;2.90;;;16.20;99.90;;;;;;5032254;28;20906;-79
2023/01/01 10:07:54;;;;;;;6.00;2.90;;;16.30;99.90;;;;;;5030621;28;20465;-79
2023/01/01 10:10:32;;;;;;;9.80;2.43;;;16.50;99.90;;;;;;5031627;28;20621;-80
2023/01/01 10:13:06;;;;;;;7.20;3.10;;;16.80;99.90;;;;;;5031500;28;21013;-79
2023/01/01 10:15:39;;;;;;;5.30;2.70;;;16.90;99.90;;;;;;5031131;28;20445;-78
2023/01/01 10:18:15;;;;;;;5.33;2.47;;;16.90;99.90;;;;;;5031126;28;20496;-80
2023/01/01 10:20:46;;;;;;;3.67;2.60;;;17.00;99.90;;;;;;5030321;28;20449;-72
2023/01/01 10:23:19;;;;;;;6.27;2.53;;;17.10;99.90;;;;;;5028132;28;20488;-72
2023/01/01 10:25:46;;;;;;;4.80;2.90;;;17.20;99.90;;;;;;5027487;28;20456;-72
2023/01/01 10:28:20;;;;;;;10.10;2.93;;;17.20;99.90;;;;;;5026708;28;20477;-72
2023/01/01 10:30:51;;;;;;;5.53;2.20;;;17.20;99.90;;;;;;5029427;28;20489;-72
2023/01/01 10:33:18;;;;;;;6.33;2.57;;;17.20;99.90;;;;;;5028456;28;20454;-72
2023/01/01 10:35:48;;;;;;;3.70;2.43;;;17.30;99.90;;;;;;5028615;28;20460;-72
2023/01/01 10:38:22;;;;;;;4.80;2.67;;;17.30;99.90;;;;;;5026925;28;21110;-72
2023/01/01 10:40:50;;;;;;;7.70;3.00;;;17.30;99.90;;;;;;5027118;28;20458;-71
2023/01/01 10:43:17;;;;;;;4.90;2.67;;;17.40;99.90;;;;;;5025481;28;20442;-71
2023/01/01 10:45:48;;;;;;;7.73;3.00;;;17.50;99.90;;;;;;5025517;28;20453;-72
2023/01/01 10:48:18;;;;;;;4.90;2.80;;;17.60;99.90;;;;;;5024965;28;20476;-72
2023/01/01 10:50:48;;;;;;;7.33;3.13;;;17.60;99.90;;;;;;5025589;28;20478;-72
2023/01/01 10:53:25;;;;;;;7.53;3.20;;;17.60;99.90;;;;;;5025248;28;20457;-72
2023/01/01 10:56:04;;;;;;;4.30;2.90;;;17.60;99.90;;;;;;5025477;28;20449;-72
2023/01/01 10:58:37;;;;;;;6.23;2.97;;;17.60;99.90;;;;;;5024702;28;20592;-65
2023/01/01 11:01:06;;;;;;;5.90;3.30;;;17.70;99.90;;;;;;5025591;28;20515;-65
2023/01/01 11:03:34;;;;;;;7.07;3.53;;;17.70;99.90;;;;;;5025208;28;20954;-66
2023/01/01 11:06:14;;;;;;;4.90;2.80;;;17.70;99.90;;;;;;5024886;28;20536;-65
2023/01/01 11:08:48;;;;;;;4.93;2.53;;;17.70;99.90;;;;;;5026369;28;20470;-72
2023/01/01 11:11:21;;;;;;;5.33;2.80;;;17.70;99.90;;;;;;5024789;28;20855;-72
2023/01/01 11:13:51;;;;;;;6.97;2.53;;;17.90;99.90;;;;;;5025612;28;20969;-72
2023/01/01 11:16:18;;;;;;;8.43;2.53;;;17.80;99.90;;;;;;5024637;28;20501;-72
2023/01/01 11:18:47;;;;;;;3.57;2.70;;;17.90;99.90;;;;;;5024489;28;20493;-72
2023/01/01 11:21:20;;;;;;;4.57;2.30;;;18.00;99.90;;;;;;5024973;28;20446;-72
2023/01/01 11:23:49;;;;;;;4.03;2.60;;;18.00;99.90;;;;;;5025149;28;20453;-72
2023/01/01 11:26:26;;;;;;;4.90;2.70;;;18.30;99.90;;;;;;5024440;28;20457;-72
2023/01/01 11:29:02;;;;;;;6.17;2.57;;;18.50;99.90;;;;;;5024256;28;20477;-73
2023/01/01 11:31:33;;;;;;;4.60;2.70;;;18.60;99.90;;;;;;5024968;28;20497;-72
2023/01/01 11:34:04;;;;;;;5.73;2.70;;;18.70;99.90;;;;;;5025055;28;20493;-73
2023/01/01 11:36:33;;;;;;;5.77;3.07;;;18.60;99.90;;;;;;5024341;28;20454;-72
2023/01/01 11:39:18;;;;;;;7.63;3.17;;;18.60;99.90;;;;;;5023774;28;20557;-72
2023/01/01 11:41:48;;;;;;;9.03;3.87;;;18.80;99.90;;;;;;5024519;28;20452;-72
2023/01/01 11:44:26;;;;;;;5.13;2.73;;;19.10;99.90;;;;;;5024699;28;21364;-72
2023/01/01 11:46:53;;;;;;;6.47;2.97;;;19.40;99.90;;;;;;5024979;28;20790;-72
2023/01/01 11:49:25;;;;;;;6.53;3.20;;;19.60;99.90;;;;;;5028594;28;20837;-72
2023/01/01 11:51:52;;;;;;;5.10;2.80;;;19.60;99.90;;;;;;5028516;28;20493;-73
2023/01/01 11:54:25;;;;;;;6.37;2.77;;;19.50;99.90;;;;;;5028667;28;20461;-73
2023/01/01 11:56:55;;;;;;;7.10;2.67;;;19.30;99.90;;;;;;5027308;28;21044;-72
2023/01/01 11:59:26;;;;;;;5.23;2.70;;;19.40;99.90;;;;;;5028690;28;21254;-72
2023/01/01 12:01:58;;;;;;;5.70;3.60;;;19.20;99.90;;;;;;5028215;28;20806;-72
2023/01/01 12:04:31;;;;;;;4.10;2.70;;;19.50;99.90;;;;;;5028354;28;20469;-73
2023/01/01 12:07:04;;;;;;;4.03;2.77;;;19.70;99.90;;;;;;5027717;28;20446;-73
2023/01/01 12:09:37;;;;;;;8.03;3.10;;;19.90;99.90;;;;;;5028040;28;20968;-72
2023/01/01 12:12:10;;;;;;;7.20;2.93;;;20.10;99.90;;;;;;5028181;28;20508;-73
2023/01/01 12:14:42;;;;;;;4.87;2.87;;;20.10;99.90;;;;;;5028232;28;20461;-73
2023/01/01 12:17:18;;;;;;;5.70;2.70;;;20.20;99.90;;;;;;5026723;28;21447;-72
2023/01/01 12:19:56;;;;;;;5.97;2.80;;;20.40;99.90;;;;;;5028208;28;20487;-72
2023/01/01 12:22:23;;;;;;;5.33;2.67;;;20.40;99.90;;;;;;5027882;28;20426;-72
2023/01/01 12:24:50;;;;;;;2.93;2.20;;;20.30;99.90;;;;;;5027714;28;20945;-72
2023/01/01 12:27:26;;;;;;;5.70;2.67;;;20.40;99.90;;;;;;5026963;28;20478;-72
2023/01/01 12:30:06;;;;;;;7.70;2.40;;;20.60;99.90;;;;;;5028072;28;20456;-72
2023/01/01 12:32:51;;;;;;;9.10;2.60;;;20.80;99.90;;;;;;5027695;28;20499;-72
2023/01/01 12:35:27;;;;;;;4.53;2.70;;;20.80;99.90;;;;;;5027824;28;20452;-72
2023/01/01 12:38:02;;;;;;;7.63;2.37;;;20.80;99.90;;;;;;5026464;28;20469;-72
2023/01/01 12:40:50;;;;;;;6.13;2.93;;;20.80;99.90;;;;;;5028044;28;20442;-72
2023/01/01 12:43:23;;;;;;;8.43;2.87;;;20.90;99.90;;;;;;5027671;28;20454;-72
2023/01/01 12:46:28;;;;;;;4.00;2.33;;;21.00;99.90;;;;;;5027623;28;20518;-72
2023/01/01 12:49:11;;;;;;;9.40;3.00;;;20.80;99.90;;;;;;5027350;28;20829;-72
2023/01/01 12:51:49;;;;;;;6.57;2.23;;;20.80;99.90;;;;;;5027003;28;20500;-72
2023/01/01 12:54:39;;;;;;;4.77;2.30;;;20.80;99.90;;;;;;5026568;28;20458;-72
2023/01/01 12:57:13;;;;;;;6.10;2.50;;;20.60;99.90;;;;;;5025916;28;20473;-72